createdAt,value
2018-07-25T00:00:46.559Z,21.80
2018-07-25T00:03:15.897Z,21.80
2018-07-25T00:08:14.203Z,21.70
2018-07-25T00:10:49.439Z,21.80
2018-07-25T00:13:18.820Z,21.80
2018-07-25T00:15:48.217Z,21.80
2018-07-25T00:18:17.540Z,21.80
2018-07-25T00:20:46.906Z,21.70
2018-07-25T00:23:16.204Z,21.60
2018-07-25T00:25:45.589Z,21.50
2018-07-25T00:28:14.959Z,21.40
2018-07-25T00:30:44.323Z,21.40
2018-07-25T00:33:13.676Z,21.40
2018-07-25T00:35:43.121Z,21.30
2018-07-25T00:38:12.456Z,21.30
2018-07-25T00:40:41.845Z,21.20
2018-07-25T00:43:11.188Z,21.10
2018-07-25T00:48:09.585Z,21.20
2018-07-25T00:50:38.992Z,21.20
2018-07-25T00:53:08.358Z,21.20
2018-07-25T00:55:37.761Z,21.20
2018-07-25T00:58:07.090Z,21.20
2018-07-25T01:03:05.400Z,21.20
2018-07-25T01:05:34.780Z,21.10
2018-07-25T01:08:04.184Z,21.00
2018-07-25T01:13:02.520Z,20.70
2018-07-25T01:15:31.900Z,20.70
2018-07-25T01:18:01.220Z,20.80
2018-07-25T01:20:30.584Z,20.90
2018-07-25T01:27:57.769Z,20.80
2018-07-25T01:32:56.388Z,20.70
2018-07-25T01:35:25.992Z,20.60
2018-07-25T01:37:55.676Z,20.50
2018-07-25T01:42:53.888Z,20.50
2018-07-25T01:45:23.252Z,20.60
2018-07-25T01:47:52.604Z,20.60
2018-07-25T01:50:21.915Z,20.70
2018-07-25T01:52:51.231Z,20.70
2018-07-25T01:55:20.751Z,20.80
2018-07-25T01:57:50.095Z,20.70
2018-07-25T02:00:19.463Z,20.70
2018-07-25T02:02:48.791Z,20.70
2018-07-25T02:05:18.199Z,20.70
2018-07-25T02:10:16.421Z,20.70
2018-07-25T02:12:45.792Z,20.70
2018-07-25T02:15:15.143Z,20.60
2018-07-25T02:17:44.507Z,20.60
2018-07-25T02:20:13.822Z,20.60
2018-07-25T02:22:49.595Z,20.60
2018-07-25T02:25:18.903Z,20.50
2018-07-25T02:27:48.243Z,20.50
2018-07-25T02:30:17.535Z,20.40
2018-07-25T02:32:46.893Z,20.40
2018-07-25T02:35:16.210Z,20.30
2018-07-25T02:37:45.544Z,20.20
2018-07-25T02:40:14.904Z,20.10
2018-07-25T02:42:44.227Z,20.10
2018-07-25T02:45:13.571Z,20.00
2018-07-25T02:47:42.951Z,20.10
2018-07-25T02:50:12.242Z,20.10
2018-07-25T02:52:41.567Z,20.10
2018-07-25T02:55:10.864Z,20.10
2018-07-25T02:57:40.208Z,20.00
2018-07-25T03:00:09.544Z,20.00
2018-07-25T03:02:38.888Z,19.90
2018-07-25T03:05:08.197Z,19.90
2018-07-25T03:07:37.524Z,19.90
2018-07-25T03:10:07.068Z,19.90
2018-07-25T03:12:36.420Z,19.90
2018-07-25T03:15:06.325Z,19.90
2018-07-25T03:17:35.717Z,19.90
2018-07-25T03:20:05.209Z,19.90
2018-07-25T03:22:34.544Z,19.90
2018-07-25T03:25:03.980Z,19.90
2018-07-25T03:27:33.289Z,19.90
2018-07-25T03:32:31.497Z,19.90
2018-07-25T03:35:00.911Z,19.80
2018-07-25T03:37:30.263Z,19.80
2018-07-25T03:39:59.548Z,19.80
2018-07-25T03:42:28.849Z,19.80
2018-07-25T03:44:58.187Z,19.80
2018-07-25T03:47:27.482Z,19.70
2018-07-25T03:49:56.818Z,19.70
2018-07-25T03:52:26.140Z,19.70
2018-07-25T03:54:55.496Z,19.70
2018-07-25T03:57:24.808Z,19.60
2018-07-25T03:59:54.209Z,19.50
2018-07-25T04:02:23.564Z,19.40
2018-07-25T04:04:52.904Z,19.40
2018-07-25T04:07:22.219Z,19.40
2018-07-25T04:09:51.563Z,19.40
2018-07-25T04:12:20.876Z,19.50
2018-07-25T04:14:50.253Z,19.50
2018-07-25T04:17:19.560Z,19.60
2018-07-25T04:19:48.931Z,19.60
2018-07-25T04:22:18.264Z,19.60
2018-07-25T04:24:47.693Z,19.60
2018-07-25T04:27:17.004Z,19.60
2018-07-25T04:29:46.295Z,19.60
2018-07-25T04:32:15.665Z,19.60
2018-07-25T04:34:45.001Z,19.50
2018-07-25T04:37:14.332Z,19.50
2018-07-25T04:42:12.497Z,19.50
2018-07-25T04:44:41.842Z,19.40
2018-07-25T04:47:11.475Z,19.40
2018-07-25T04:49:40.821Z,19.40
2018-07-25T04:52:10.192Z,19.40
2018-07-25T04:54:39.584Z,19.50
2018-07-25T04:57:09.079Z,19.50
2018-07-25T04:59:38.475Z,19.60
2018-07-25T05:02:07.888Z,19.60
2018-07-25T05:04:37.307Z,19.70
2018-07-25T05:07:06.710Z,19.70
2018-07-25T05:09:35.965Z,19.80
2018-07-25T05:12:05.532Z,19.70
2018-07-25T05:14:34.861Z,19.70
2018-07-25T05:17:04.272Z,19.80
2018-07-25T05:19:33.641Z,19.80
2018-07-25T05:22:02.992Z,19.80
2018-07-25T05:24:32.298Z,19.90
2018-07-25T05:27:01.672Z,19.90
2018-07-25T05:29:31.001Z,20.00
2018-07-25T05:32:00.368Z,20.00
2018-07-25T05:34:29.707Z,20.10
2018-07-25T05:36:59.072Z,20.20
2018-07-25T05:41:57.287Z,20.30
2018-07-25T05:44:26.700Z,20.30
2018-07-25T05:46:56.072Z,20.40
2018-07-25T05:51:54.289Z,20.40
2018-07-25T05:54:23.580Z,20.50
2018-07-25T05:56:52.964Z,20.60
2018-07-25T05:59:22.328Z,20.70
2018-07-25T06:01:51.684Z,20.70
2018-07-25T06:04:20.999Z,20.80
2018-07-25T06:06:50.366Z,20.90
2018-07-25T06:09:19.680Z,20.90
2018-07-25T06:11:49.038Z,21.00
2018-07-25T06:14:18.404Z,21.10
2018-07-25T06:16:47.711Z,21.20
2018-07-25T06:19:17.056Z,21.30
2018-07-25T06:21:46.388Z,21.40
2018-07-25T06:24:15.717Z,21.40
2018-07-25T06:26:45.088Z,21.50
2018-07-25T06:29:14.395Z,21.50
2018-07-25T06:31:43.788Z,21.60
2018-07-25T06:36:42.058Z,21.70
2018-07-25T06:39:12.896Z,21.80
2018-07-25T06:41:42.263Z,21.80
2018-07-25T06:44:11.623Z,21.80
2018-07-25T06:46:41.013Z,21.90
2018-07-25T06:49:10.318Z,21.80
2018-07-25T06:51:39.681Z,21.80
2018-07-25T06:54:09.000Z,21.80
2018-07-25T06:56:38.358Z,21.80
2018-07-25T06:59:07.768Z,21.90
2018-07-25T07:01:37.131Z,21.90
2018-07-25T07:06:35.443Z,22.20
2018-07-25T07:09:07.080Z,22.20
2018-07-25T07:11:36.599Z,22.40
2018-07-25T07:14:06.324Z,22.50
2018-07-25T07:16:35.820Z,22.60
2018-07-25T07:19:05.316Z,22.70
2018-07-25T07:21:34.875Z,22.80
2018-07-25T07:24:04.592Z,22.90
2018-07-25T07:26:34.024Z,23.00
2018-07-25T07:31:32.455Z,23.30
2018-07-25T07:34:01.818Z,23.40
2018-07-25T07:36:31.148Z,23.50
2018-07-25T07:39:00.560Z,23.70
2018-07-25T07:41:29.908Z,23.70
2018-07-25T07:43:59.467Z,23.90
2018-07-25T07:46:28.956Z,24.00
2018-07-25T07:48:58.324Z,24.10
2018-07-25T07:51:27.647Z,24.20
2018-07-25T07:53:57.135Z,24.30
2018-07-25T07:56:26.622Z,24.40
2018-07-25T07:58:57.207Z,24.50
2018-07-25T08:01:26.588Z,24.60
2018-07-25T08:06:24.823Z,24.80
2018-07-25T08:08:54.321Z,24.90
2018-07-25T08:11:23.845Z,25.10
2018-07-25T08:13:53.308Z,25.10
2018-07-25T08:16:22.655Z,25.20
2018-07-25T08:18:52.036Z,25.40
2018-07-25T08:21:21.357Z,25.50
2018-07-25T08:23:50.787Z,25.60
2018-07-25T08:26:20.147Z,25.70
2018-07-25T08:28:49.559Z,25.80
2018-07-25T08:31:19.071Z,25.90
2018-07-25T08:33:48.569Z,26.00
2018-07-25T08:36:18.195Z,26.10
2018-07-25T08:38:47.707Z,26.30
2018-07-25T08:41:17.121Z,26.40
2018-07-25T08:43:46.469Z,26.50
2018-07-25T08:46:15.851Z,26.60
2018-07-25T08:48:45.221Z,26.70
2018-07-25T08:51:14.571Z,26.80
2018-07-25T08:53:44.168Z,27.00
2018-07-25T08:56:13.719Z,27.10
2018-07-25T08:58:43.316Z,27.20
2018-07-25T09:01:12.704Z,27.30
2018-07-25T09:03:42.240Z,27.50
2018-07-25T09:06:11.588Z,27.60
2018-07-25T09:08:40.897Z,27.80
2018-07-25T09:11:10.288Z,27.90
2018-07-25T09:13:40.729Z,28.00
2018-07-25T09:16:10.230Z,28.10
2018-07-25T09:18:39.681Z,28.30
2018-07-25T09:21:08.997Z,28.40
2018-07-25T09:23:39.274Z,28.50
2018-07-25T09:26:08.743Z,28.60
2018-07-25T09:28:38.091Z,28.70
2018-07-25T09:31:07.411Z,28.90
2018-07-25T09:33:36.822Z,29.00
2018-07-25T09:38:35.884Z,29.10
2018-07-25T09:41:05.610Z,29.20
2018-07-25T09:43:35.049Z,29.30
2018-07-25T09:48:33.399Z,29.50
2018-07-25T09:51:02.779Z,29.60
2018-07-25T09:53:32.100Z,29.80
2018-07-25T09:56:01.417Z,29.90
2018-07-25T09:58:30.739Z,30.00
2018-07-25T10:01:00.122Z,30.10
2018-07-25T10:03:29.408Z,30.20
2018-07-25T10:05:58.768Z,30.20
2018-07-25T10:11:03.525Z,30.30
2018-07-25T10:13:32.868Z,30.50
2018-07-25T10:16:02.208Z,30.60
2018-07-25T10:18:31.563Z,30.80
2018-07-25T10:21:00.911Z,31.00
2018-07-25T10:25:59.131Z,31.20
2018-07-25T10:28:28.474Z,31.20
2018-07-25T10:30:57.816Z,31.40
2018-07-25T10:35:56.133Z,31.50
2018-07-25T10:38:25.468Z,31.70
2018-07-25T10:40:54.844Z,31.70
2018-07-25T10:43:24.196Z,31.70
2018-07-25T10:45:53.616Z,31.80
2018-07-25T10:48:22.863Z,31.90
2018-07-25T10:50:52.208Z,31.90
2018-07-25T10:53:22.683Z,32.10
2018-07-25T10:55:52.082Z,32.20
2018-07-25T10:58:21.334Z,32.40
2018-07-25T11:03:19.666Z,32.40
2018-07-25T11:05:49.267Z,32.40
2018-07-25T11:08:18.572Z,32.40
2018-07-25T11:10:47.904Z,32.40
2018-07-25T11:13:17.303Z,32.50
2018-07-25T11:15:46.787Z,32.60
2018-07-25T11:18:16.350Z,32.50
2018-07-25T11:23:14.512Z,32.00
2018-07-25T11:25:43.861Z,31.90
2018-07-25T11:30:41.970Z,31.60
2018-07-25T11:33:11.271Z,31.60
2018-07-25T11:35:40.564Z,31.60
2018-07-25T11:38:09.947Z,31.50
2018-07-25T11:40:39.200Z,31.50
2018-07-25T11:45:43.945Z,31.40
2018-07-25T11:48:13.261Z,31.50
2018-07-25T11:50:42.660Z,31.50
2018-07-25T11:53:11.995Z,31.40
2018-07-25T11:55:41.459Z,31.40
2018-07-25T11:58:10.755Z,31.50
2018-07-25T12:00:40.094Z,31.70
2018-07-25T12:03:09.509Z,31.90
2018-07-25T12:08:07.811Z,32.20
2018-07-25T12:10:37.139Z,32.30
2018-07-25T12:13:06.803Z,32.40
2018-07-25T12:15:36.162Z,32.50
2018-07-25T12:18:05.804Z,32.60
2018-07-25T12:23:04.090Z,33.10
2018-07-25T12:25:33.444Z,33.30
2018-07-25T12:28:02.846Z,33.40
2018-07-25T12:30:32.182Z,33.40
2018-07-25T12:33:01.618Z,33.40
2018-07-25T12:37:59.890Z,33.30
2018-07-25T12:40:29.225Z,33.50
2018-07-25T12:42:58.699Z,33.70
2018-07-25T12:45:28.203Z,33.80
2018-07-25T12:47:57.836Z,33.80
2018-07-25T12:50:27.396Z,33.80
2018-07-25T12:52:57.348Z,33.90
2018-07-25T12:57:56.019Z,34.00
2018-07-25T13:00:25.584Z,34.00
2018-07-25T13:02:55.249Z,34.00
2018-07-25T13:05:24.748Z,34.00
2018-07-25T13:07:54.187Z,34.10
2018-07-25T13:10:23.758Z,34.10
2018-07-25T13:12:53.104Z,34.10
2018-07-25T13:15:22.620Z,34.10
2018-07-25T13:17:51.972Z,34.00
2018-07-25T13:20:21.350Z,34.10
2018-07-25T13:22:52.315Z,34.20
2018-07-25T13:25:21.917Z,34.30
2018-07-25T13:27:51.455Z,34.40
2018-07-25T13:30:21.006Z,34.50
2018-07-25T13:32:50.372Z,34.60
2018-07-25T13:35:21.137Z,34.70
2018-07-25T13:37:50.697Z,34.80
2018-07-25T13:42:49.054Z,35.00
2018-07-25T13:45:18.423Z,35.00
2018-07-25T13:50:17.220Z,35.00
2018-07-25T13:52:46.792Z,35.10
2018-07-25T13:55:16.522Z,35.10
2018-07-25T13:57:46.012Z,35.10
2018-07-25T14:05:14.330Z,35.10
2018-07-25T14:07:43.561Z,35.10
2018-07-25T14:10:12.944Z,34.90
2018-07-25T14:12:42.267Z,34.60
2018-07-25T14:15:11.632Z,34.30
2018-07-25T14:20:09.843Z,33.90
2018-07-25T14:22:39.150Z,33.70
2018-07-25T14:25:08.492Z,33.50
2018-07-25T14:27:37.810Z,33.30
2018-07-25T14:30:07.233Z,33.10
2018-07-25T14:32:36.544Z,32.80
2018-07-25T14:35:05.885Z,32.70
2018-07-25T14:37:35.199Z,32.70
2018-07-25T14:40:04.989Z,32.60
2018-07-25T14:42:34.264Z,32.60
2018-07-25T14:45:03.668Z,32.80
2018-07-25T14:47:33.120Z,33.10
2018-07-25T14:50:02.472Z,33.40
2018-07-25T14:52:31.805Z,33.70
2018-07-25T14:55:01.145Z,34.00
2018-07-25T14:57:30.459Z,34.20
2018-07-25T15:02:28.736Z,34.60
2018-07-25T15:07:26.852Z,34.70
2018-07-25T15:09:56.206Z,34.70
2018-07-25T15:12:30.991Z,34.70
2018-07-25T15:15:00.265Z,34.80
2018-07-25T15:17:29.642Z,34.90
2018-07-25T15:19:59.024Z,35.00
2018-07-25T15:22:28.382Z,35.00
2018-07-25T15:24:57.705Z,35.00
2018-07-25T15:27:27.043Z,35.00
2018-07-25T15:29:56.428Z,35.00
2018-07-25T15:32:25.800Z,35.00
2018-07-25T15:34:55.171Z,35.00
2018-07-25T15:37:24.551Z,35.00
2018-07-25T15:39:53.932Z,35.00
2018-07-25T15:42:23.300Z,35.00
2018-07-25T15:44:52.631Z,35.00
2018-07-25T15:47:22.073Z,35.00
2018-07-25T15:49:51.341Z,34.90
2018-07-25T15:52:20.720Z,34.90
2018-07-25T15:54:50.069Z,34.80
2018-07-25T15:57:19.427Z,34.90
2018-07-25T15:59:49.033Z,34.90
2018-07-25T16:04:47.260Z,34.90
2018-07-25T16:07:16.609Z,35.00
2018-07-25T16:09:45.954Z,35.00
2018-07-25T16:12:15.308Z,35.00
2018-07-25T16:17:13.537Z,35.00
2018-07-25T16:19:42.869Z,35.00
2018-07-25T16:22:12.268Z,35.10
2018-07-25T16:24:41.598Z,35.20
2018-07-25T16:29:39.808Z,35.10
2018-07-25T16:32:09.242Z,35.10
2018-07-25T16:34:38.748Z,35.10
2018-07-25T16:37:08.450Z,35.20
2018-07-25T16:39:39.020Z,35.00
2018-07-25T16:42:08.645Z,35.10
2018-07-25T16:44:38.284Z,35.20
2018-07-25T16:47:07.888Z,35.30
2018-07-25T16:49:37.326Z,35.40
2018-07-25T16:52:06.809Z,35.50
2018-07-25T16:54:36.099Z,35.50
2018-07-25T16:57:05.593Z,35.50
2018-07-25T16:59:34.934Z,35.50
2018-07-25T17:02:04.350Z,35.40
2018-07-25T17:04:33.679Z,35.30
2018-07-25T17:07:03.037Z,35.10
2018-07-25T17:09:32.357Z,35.00
2018-07-25T17:12:01.717Z,34.90
2018-07-25T17:14:31.044Z,34.70
2018-07-25T17:17:00.388Z,34.70
2018-07-25T17:21:58.605Z,34.70
2018-07-25T17:24:27.937Z,34.70
2018-07-25T17:26:57.383Z,34.60
2018-07-25T17:31:55.620Z,34.20
2018-07-25T17:34:24.945Z,33.90
2018-07-25T17:36:54.321Z,33.70
2018-07-25T17:39:23.669Z,33.50
2018-07-25T17:41:52.997Z,33.30
2018-07-25T17:44:22.414Z,33.10
2018-07-25T17:46:51.801Z,32.80
2018-07-25T17:49:21.154Z,32.60
2018-07-25T17:51:50.488Z,32.40
2018-07-25T17:59:17.587Z,31.90
2018-07-25T18:01:47.080Z,31.70
2018-07-25T18:06:45.746Z,31.40
2018-07-25T18:09:15.098Z,31.30
2018-07-25T18:11:44.457Z,31.10
2018-07-25T18:14:15.870Z,31.10
2018-07-25T18:16:45.740Z,31.00
2018-07-25T18:21:44.932Z,30.70
2018-07-25T18:24:14.331Z,30.60
2018-07-25T18:26:43.670Z,30.50
2018-07-25T18:34:10.826Z,30.20
2018-07-25T18:36:40.177Z,30.00
2018-07-25T18:39:11.113Z,29.90
2018-07-25T18:41:41.032Z,29.70
2018-07-25T18:44:10.653Z,29.60
2018-07-25T18:46:40.064Z,29.50
2018-07-25T18:49:09.443Z,29.30
2018-07-25T18:51:38.786Z,29.10
2018-07-25T18:54:08.211Z,29.00
2018-07-25T18:56:37.671Z,28.80
2018-07-25T18:59:07.056Z,28.70
2018-07-25T19:01:36.418Z,28.60
2018-07-25T19:04:05.915Z,28.40
2018-07-25T19:06:35.259Z,28.30
2018-07-25T19:11:35.297Z,28.10
2018-07-25T19:16:38.742Z,27.80
2018-07-25T19:19:08.060Z,27.70
2018-07-25T19:21:37.356Z,27.60
2018-07-25T19:24:06.721Z,27.50
2018-07-25T19:26:36.021Z,27.50
2018-07-25T19:29:05.811Z,27.40
2018-07-25T19:31:35.148Z,27.30
2018-07-25T19:34:04.533Z,27.10
2018-07-25T19:36:33.824Z,27.00
2018-07-25T19:39:03.220Z,27.00
2018-07-25T19:41:32.504Z,27.00
2018-07-25T19:44:01.812Z,27.00
2018-07-25T19:46:31.136Z,27.00
2018-07-25T19:51:29.291Z,27.00
2018-07-25T19:53:58.568Z,27.00
2018-07-25T19:56:27.912Z,27.00
2018-07-25T19:58:57.230Z,26.90
2018-07-25T20:01:26.709Z,26.70
2018-07-25T20:03:55.987Z,26.60
2018-07-25T20:06:25.309Z,26.40
2018-07-25T20:08:54.592Z,26.30
2018-07-25T20:11:23.921Z,26.10
2018-07-25T20:13:58.432Z,26.00
2018-07-25T20:18:56.616Z,25.90
2018-07-25T20:21:26.298Z,25.90
2018-07-25T20:23:55.944Z,25.80
2018-07-25T20:26:25.438Z,25.80
2018-07-25T20:28:54.744Z,25.80
2018-07-25T20:31:24.068Z,25.80
2018-07-25T20:33:53.553Z,25.80
2018-07-25T20:38:52.243Z,25.80
2018-07-25T20:41:21.904Z,25.70
2018-07-25T20:43:51.576Z,25.70
2018-07-25T20:48:50.196Z,25.50
2018-07-25T20:51:19.545Z,25.40
2018-07-25T20:53:48.848Z,25.40
2018-07-25T20:56:18.219Z,25.40
2018-07-25T20:58:47.552Z,25.30
2018-07-25T21:01:17.054Z,25.30
2018-07-25T21:03:46.504Z,25.20
2018-07-25T21:08:44.811Z,25.20
2018-07-25T21:11:14.200Z,25.20
2018-07-25T21:13:43.543Z,25.10
2018-07-25T21:16:12.927Z,25.10
2018-07-25T21:18:42.204Z,25.10
2018-07-25T21:23:40.442Z,25.10
2018-07-25T21:26:09.815Z,25.10
2018-07-25T21:28:39.119Z,25.10
2018-07-25T21:31:08.466Z,25.10
2018-07-25T21:33:37.762Z,25.00
2018-07-25T21:36:07.094Z,25.00
2018-07-25T21:41:05.235Z,24.90
2018-07-25T21:43:34.561Z,24.80
2018-07-25T21:46:03.973Z,24.80
2018-07-25T21:48:33.280Z,24.80
2018-07-25T21:51:02.601Z,24.70
2018-07-25T21:53:31.934Z,24.60
2018-07-25T21:56:01.248Z,24.50
2018-07-25T21:58:30.522Z,24.50
2018-07-25T22:01:04.992Z,24.40
2018-07-25T22:03:34.289Z,24.40
2018-07-25T22:06:03.677Z,24.40
2018-07-25T22:08:33.094Z,24.40
2018-07-25T22:11:02.436Z,24.40
2018-07-25T22:13:31.781Z,24.30
2018-07-25T22:16:01.427Z,24.20
2018-07-25T22:20:59.645Z,24.10
2018-07-25T22:23:29.244Z,24.00
2018-07-25T22:25:58.808Z,24.00
2018-07-25T22:28:28.382Z,24.00
2018-07-25T22:30:57.932Z,24.10
2018-07-25T22:33:27.287Z,24.10
2018-07-25T22:35:56.598Z,24.10
2018-07-25T22:38:25.936Z,24.00
2018-07-25T22:40:55.268Z,23.90
2018-07-25T22:45:53.486Z,23.70
2018-07-25T22:48:22.868Z,23.70
2018-07-25T22:53:21.243Z,23.50
2018-07-25T22:58:19.943Z,23.50
2018-07-25T23:00:49.570Z,23.50
2018-07-25T23:03:19.093Z,23.50
2018-07-25T23:05:48.651Z,23.50
2018-07-25T23:08:18.000Z,23.50
2018-07-25T23:10:47.314Z,23.40
2018-07-25T23:13:16.621Z,23.20
2018-07-25T23:15:45.939Z,23.10
2018-07-25T23:18:15.296Z,23.20
2018-07-25T23:20:44.598Z,23.20
2018-07-25T23:23:14.204Z,23.10
2018-07-25T23:25:43.781Z,23.10
2018-07-25T23:28:13.324Z,23.00
2018-07-25T23:30:42.903Z,23.00
2018-07-25T23:35:41.313Z,22.90
2018-07-25T23:38:10.664Z,22.90
2018-07-25T23:40:40.020Z,23.00
2018-07-25T23:43:09.372Z,22.90
2018-07-25T23:45:38.804Z,22.80
2018-07-25T23:50:37.436Z,22.70
2018-07-25T23:53:07.032Z,22.70
2018-07-25T23:55:36.592Z,22.70
2018-07-25T23:58:05.915Z,22.70
